LFMNLFTH

Guest
Details From LFMN - Nice/Cote d'Azur
To LFTH - Le Palyvestre Navy
Flight Number -
Tags generated
Created
Modified
Stats Distance 57 nm / 106 km
Max Altitude 2,900 ft / 884 m
Waypoints 3
Social Downloads 8
Likes 0
Share VATSIM

Download

Looking for another format? Having issues loading an existing format? Contact us
Advertisement - Login to hide

Notes

Basic altitude profile: - Ascent Rate: 2500ft/min - Ascent Speed: 250kts - Cruise Altitude: 35000ft - Cruise Speed: 420kts - Descent Rate: 1500ft/min - Descent Speed: 250kts

Route

LFMN RUBIT LFTH

ID Type Via Altitude Latitude Longitude Leg Dist Tot Dist Heading (true) Name
O LFMN APT - 0 ft / 0 m 43.65798˚ 7.21536˚ - 0 nm - Nice/Cote d'Azur
RUBIT FIX - 2,900 ft / 884 m 43.22222˚ 6.41222˚ 43 nm 43 nm 234° / 233° -
O LFTH APT - 0 ft / 0 m 43.09812˚ 6.14976˚ 13 nm 57 nm 237° / 237° Le Palyvestre Navy

Altitude Profile

Advertisement - Login to hide

LFMN

Details ICAO LFMN (NCE)
Name Nice/Cote d'Azur
Region France
Timezone Unknown (UTC+0.0)
Stats Elevation 12 ft / 4 m (AMSL)
Location 43.657981° 7.215362°
Runways 2
Magnetic Variation 2.016° E

METAR

LFMN 151630Z VRB03KT 9999 FEW040 11/02 Q0997 NOSIG

Decode

TAF

TAF LFMN 151400Z 1515/1621 24008KT CAVOK TEMPO 1515/1517 26015G25KT TEMPO 1522/1603 26015G25KT BECMG 1603/1605 34010KT BECMG 1612/1614 24008KT

Decode

Departure Runways

ID Width Length Bearing (true) Bearing (mag) Surface Threshold Offset Overrun Length
04L 148 ft / 45 m 8,427 ft / 2,569 m 44.85° 42.83° Asphalt 0 ft / 0 m 131 ft / 40 m
04R 148 ft / 45 m 9,720 ft / 2,963 m 44.60° 42.58° Asphalt 0 ft / 0 m 427 ft / 130 m
22L 148 ft / 45 m 9,720 ft / 2,963 m 224.62° 222.60° Asphalt 0 ft / 0 m 525 ft / 160 m
22R 148 ft / 45 m 8,427 ft / 2,569 m 224.87° 222.85° Asphalt 0 ft / 0 m 492 ft / 150 m

LFTH

Details ICAO LFTH (TLN)
Name Le Palyvestre Navy
Region France
Timezone Europe/Paris (UTC+1.0)
Stats Elevation 6 ft / 2 m (AMSL)
Location 43.098120° 6.149761°
Runways 2
Magnetic Variation 1.772° E

METAR

LFTH 151630Z AUTO 30010KT 260V340 CAVOK 11/M01 Q1002 NOSIG

Decode

TAF

TAF LFTH 151400Z 1515/1615 27011G21KT CAVOK TEMPO 1606/1615 30020G35KT

Decode

Destination Runways

ID Width Length Bearing (true) Bearing (mag) Surface Threshold Offset Overrun Length
05 148 ft / 45 m 6,956 ft / 2,120 m 51.12° 49.35° Concrete 722 ft / 220 m 361 ft / 110 m
14 164 ft / 50 m 6,302 ft / 1,921 m 135.18° 133.41° Concrete 951 ft / 290 m 0 ft / 0 m
23 148 ft / 45 m 6,956 ft / 2,120 m 231.13° 229.36° Concrete 0 ft / 0 m 141 ft / 43 m
32 164 ft / 50 m 6,302 ft / 1,921 m 315.20° 313.43° Concrete 295 ft / 90 m 443 ft / 135 m

Popular Alternatives